sensor_id;sensor_type;location;lat;lon;timestamp;P1;durP1;ratioP1;P2;durP2;ratioP2
58101;SDS011;52034;51.926;6.320;2022-07-23T00:00:59;5.13;;;3.90;;
58101;SDS011;52034;51.926;6.320;2022-07-23T00:02:18;4.40;;;3.50;;
58101;SDS011;52034;51.926;6.320;2022-07-23T00:03:37;5.97;;;3.42;;
58101;SDS011;52034;51.926;6.320;2022-07-23T00:04:56;7.13;;;3.55;;
58101;SDS011;52034;51.926;6.320;2022-07-23T00:06:15;4.50;;;3.70;;
58101;SDS011;52034;51.926;6.320;2022-07-23T00:07:34;4.93;;;3.33;;
58101;SDS011;52034;51.926;6.320;2022-07-23T00:08:54;4.07;;;3.67;;
58101;SDS011;52034;51.926;6.320;2022-07-23T00:10:13;4.10;;;3.53;;
58101;SDS011;52034;51.926;6.320;2022-07-23T00:11:32;4.80;;;3.38;;
58101;SDS011;52034;51.926;6.320;2022-07-23T00:12:51;5.03;;;3.42;;
58101;SDS011;52034;51.926;6.320;2022-07-23T00:14:10;5.03;;;3.40;;
58101;SDS011;52034;51.926;6.320;2022-07-23T00:15:29;4.95;;;3.83;;
58101;SDS011;52034;51.926;6.320;2022-07-23T00:16:48;6.28;;;4.10;;
58101;SDS011;52034;51.926;6.320;2022-07-23T00:18:08;3.78;;;3.25;;
58101;SDS011;52034;51.926;6.320;2022-07-23T00:19:27;5.47;;;3.78;;
58101;SDS011;52034;51.926;6.320;2022-07-23T00:20:47;4.22;;;3.67;;
58101;SDS011;52034;51.926;6.320;2022-07-23T00:22:06;4.18;;;3.67;;
58101;SDS011;52034;51.926;6.320;2022-07-23T00:23:26;3.83;;;3.45;;
58101;SDS011;52034;51.926;6.320;2022-07-23T00:24:47;3.80;;;3.50;;
58101;SDS011;52034;51.926;6.320;2022-07-23T00:26:06;5.38;;;3.90;;
58101;SDS011;52034;51.926;6.320;2022-07-23T00:27:26;4.57;;;4.03;;
58101;SDS011;52034;51.926;6.320;2022-07-23T00:28:45;4.25;;;3.85;;
58101;SDS011;52034;51.926;6.320;2022-07-23T00:30:05;5.40;;;3.75;;
58101;SDS011;52034;51.926;6.320;2022-07-23T00:31:24;3.97;;;3.58;;
58101;SDS011;52034;51.926;6.320;2022-07-23T00:32:51;4.80;;;3.65;;
58101;SDS011;52034;51.926;6.320;2022-07-23T00:34:17;7.03;;;3.58;;
58101;SDS011;52034;51.926;6.320;2022-07-23T00:35:38;5.35;;;3.85;;
58101;SDS011;52034;51.926;6.320;2022-07-23T00:37:01;4.75;;;3.92;;
58101;SDS011;52034;51.926;6.320;2022-07-23T00:38:20;4.63;;;3.85;;
58101;SDS011;52034;51.926;6.320;2022-07-23T00:39:39;4.50;;;4.10;;
58101;SDS011;52034;51.926;6.320;2022-07-23T00:40:59;6.30;;;4.00;;
58101;SDS011;52034;51.926;6.320;2022-07-23T00:42:18;6.78;;;3.65;;
58101;SDS011;52034;51.926;6.320;2022-07-23T00:43:37;7.72;;;3.85;;
58101;SDS011;52034;51.926;6.320;2022-07-23T00:44:56;4.50;;;4.00;;
58101;SDS011;52034;51.926;6.320;2022-07-23T00:46:19;4.45;;;3.97;;
58101;SDS011;52034;51.926;6.320;2022-07-23T00:47:41;9.57;;;4.45;;
58101;SDS011;52034;51.926;6.320;2022-07-23T00:49:01;5.95;;;4.40;;
58101;SDS011;52034;51.926;6.320;2022-07-23T00:50:20;4.55;;;4.03;;
58101;SDS011;52034;51.926;6.320;2022-07-23T00:51:39;4.88;;;4.28;;
58101;SDS011;52034;51.926;6.320;2022-07-23T00:52:58;4.05;;;3.72;;
58101;SDS011;52034;51.926;6.320;2022-07-23T00:54:18;5.32;;;4.18;;
58101;SDS011;52034;51.926;6.320;2022-07-23T00:55:37;6.97;;;3.92;;
58101;SDS011;52034;51.926;6.320;2022-07-23T00:56:56;7.25;;;4.50;;
58101;SDS011;52034;51.926;6.320;2022-07-23T00:58:16;5.15;;;4.65;;
58101;SDS011;52034;51.926;6.320;2022-07-23T00:59:35;8.15;;;4.13;;
58101;SDS011;52034;51.926;6.320;2022-07-23T01:00:54;5.68;;;3.67;;
58101;SDS011;52034;51.926;6.320;2022-07-23T01:02:13;5.50;;;4.15;;
58101;SDS011;52034;51.926;6.320;2022-07-23T01:03:32;5.55;;;4.32;;
58101;SDS011;52034;51.926;6.320;2022-07-23T01:04:52;4.72;;;4.25;;
58101;SDS011;52034;51.926;6.320;2022-07-23T01:06:11;5.75;;;4.28;;
58101;SDS011;52034;51.926;6.320;2022-07-23T01:07:30;4.60;;;4.20;;
58101;SDS011;52034;51.926;6.320;2022-07-23T01:08:49;4.82;;;3.92;;
58101;SDS011;52034;51.926;6.320;2022-07-23T01:10:08;7.57;;;4.47;;
58101;SDS011;52034;51.926;6.320;2022-07-23T01:11:48;5.35;;;4.53;;
58101;SDS011;52034;51.926;6.320;2022-07-23T01:13:09;7.10;;;4.47;;
58101;SDS011;52034;51.926;6.320;2022-07-23T01:14:29;5.78;;;4.22;;
58101;SDS011;52034;51.926;6.320;2022-07-23T01:15:49;7.30;;;4.25;;
58101;SDS011;52034;51.926;6.320;2022-07-23T01:17:08;7.20;;;4.45;;
58101;SDS011;52034;51.926;6.320;2022-07-23T01:18:26;4.82;;;4.30;;
58101;SDS011;52034;51.926;6.320;2022-07-23T01:19:46;5.10;;;4.20;;
58101;SDS011;52034;51.926;6.320;2022-07-23T01:21:05;5.57;;;4.35;;
58101;SDS011;52034;51.926;6.320;2022-07-23T01:22:28;5.32;;;4.50;;
58101;SDS011;52034;51.926;6.320;2022-07-23T01:23:48;5.38;;;4.60;;
58101;SDS011;52034;51.926;6.320;2022-07-23T01:25:07;5.63;;;4.40;;
58101;SDS011;52034;51.926;6.320;2022-07-23T01:26:27;6.07;;;4.53;;
58101;SDS011;52034;51.926;6.320;2022-07-23T01:27:47;7.10;;;4.28;;
58101;SDS011;52034;51.926;6.320;2022-07-23T01:29:07;5.93;;;4.95;;
58101;SDS011;52034;51.926;6.320;2022-07-23T01:30:27;6.28;;;4.57;;
58101;SDS011;52034;51.926;6.320;2022-07-23T01:31:48;5.53;;;4.28;;
58101;SDS011;52034;51.926;6.320;2022-07-23T01:33:07;5.25;;;4.75;;
58101;SDS011;52034;51.926;6.320;2022-07-23T01:34:27;7.63;;;4.78;;
58101;SDS011;52034;51.926;6.320;2022-07-23T01:35:46;5.10;;;4.57;;
58101;SDS011;52034;51.926;6.320;2022-07-23T01:37:11;5.30;;;4.70;;
58101;SDS011;52034;51.926;6.320;2022-07-23T01:38:30;6.18;;;4.80;;
58101;SDS011;52034;51.926;6.320;2022-07-23T01:39:49;7.82;;;4.72;;
58101;SDS011;52034;51.926;6.320;2022-07-23T01:41:08;6.35;;;4.28;;
58101;SDS011;52034;51.926;6.320;2022-07-23T01:42:28;5.03;;;4.63;;
58101;SDS011;52034;51.926;6.320;2022-07-23T01:43:47;5.72;;;5.13;;
58101;SDS011;52034;51.926;6.320;2022-07-23T01:45:06;5.25;;;4.75;;
58101;SDS011;52034;51.926;6.320;2022-07-23T01:46:26;6.05;;;4.85;;
58101;SDS011;52034;51.926;6.320;2022-07-23T01:47:45;6.57;;;5.05;;
58101;SDS011;52034;51.926;6.320;2022-07-23T01:49:05;7.22;;;4.45;;
58101;SDS011;52034;51.926;6.320;2022-07-23T01:50:39;6.30;;;5.35;;
58101;SDS011;52034;51.926;6.320;2022-07-23T01:52:10;5.18;;;4.68;;
58101;SDS011;52034;51.926;6.320;2022-07-23T01:53:39;5.93;;;4.68;;
58101;SDS011;52034;51.926;6.320;2022-07-23T01:54:58;6.30;;;4.80;;
58101;SDS011;52034;51.926;6.320;2022-07-23T01:56:17;6.43;;;4.82;;
58101;SDS011;52034;51.926;6.320;2022-07-23T01:57:39;6.00;;;4.80;;
58101;SDS011;52034;51.926;6.320;2022-07-23T01:58:59;7.22;;;4.78;;
58101;SDS011;52034;51.926;6.320;2022-07-23T02:00:18;5.93;;;5.35;;
58101;SDS011;52034;51.926;6.320;2022-07-23T02:01:40;8.00;;;5.03;;
58101;SDS011;52034;51.926;6.320;2022-07-23T02:03:00;6.72;;;5.20;;
58101;SDS011;52034;51.926;6.320;2022-07-23T02:04:20;5.78;;;5.10;;
58101;SDS011;52034;51.926;6.320;2022-07-23T02:05:40;7.20;;;5.32;;
58101;SDS011;52034;51.926;6.320;2022-07-23T02:06:59;5.45;;;4.95;;
58101;SDS011;52034;51.926;6.320;2022-07-23T02:08:19;6.53;;;4.65;;
58101;SDS011;52034;51.926;6.320;2022-07-23T02:09:38;8.85;;;5.13;;
58101;SDS011;52034;51.926;6.320;2022-07-23T02:10:57;5.88;;;5.28;;
58101;SDS011;52034;51.926;6.320;2022-07-23T02:12:17;5.88;;;4.65;;
58101;SDS011;52034;51.926;6.320;2022-07-23T02:13:37;5.47;;;4.97;;
58101;SDS011;52034;51.926;6.320;2022-07-23T02:14:56;4.95;;;4.45;;
58101;SDS011;52034;51.926;6.320;2022-07-23T02:16:17;7.25;;;4.72;;
58101;SDS011;52034;51.926;6.320;2022-07-23T02:17:36;5.80;;;4.97;;
58101;SDS011;52034;51.926;6.320;2022-07-23T02:18:56;6.38;;;5.13;;
58101;SDS011;52034;51.926;6.320;2022-07-23T02:20:15;7.35;;;5.13;;
58101;SDS011;52034;51.926;6.320;2022-07-23T02:21:36;5.72;;;5.03;;
58101;SDS011;52034;51.926;6.320;2022-07-23T02:22:55;6.03;;;5.15;;
58101;SDS011;52034;51.926;6.320;2022-07-23T02:24:14;6.75;;;4.97;;
58101;SDS011;52034;51.926;6.320;2022-07-23T02:25:34;5.93;;;5.38;;
58101;SDS011;52034;51.926;6.320;2022-07-23T02:26:54;6.47;;;4.78;;
58101;SDS011;52034;51.926;6.320;2022-07-23T02:28:13;11.23;;;5.40;;
58101;SDS011;52034;51.926;6.320;2022-07-23T02:29:34;5.93;;;5.25;;
58101;SDS011;52034;51.926;6.320;2022-07-23T02:30:53;6.93;;;5.88;;
58101;SDS011;52034;51.926;6.320;2022-07-23T02:32:12;9.02;;;5.22;;
58101;SDS011;52034;51.926;6.320;2022-07-23T02:33:32;5.30;;;4.78;;
58101;SDS011;52034;51.926;6.320;2022-07-23T02:34:51;7.88;;;5.13;;
58101;SDS011;52034;51.926;6.320;2022-07-23T02:36:12;7.55;;;5.47;;
58101;SDS011;52034;51.926;6.320;2022-07-23T02:37:32;9.10;;;4.68;;
58101;SDS011;52034;51.926;6.320;2022-07-23T02:38:52;5.82;;;4.57;;
58101;SDS011;52034;51.926;6.320;2022-07-23T02:40:11;6.82;;;4.70;;
58101;SDS011;52034;51.926;6.320;2022-07-23T02:41:32;5.45;;;4.57;;
58101;SDS011;52034;51.926;6.320;2022-07-23T02:42:51;6.90;;;4.85;;
58101;SDS011;52034;51.926;6.320;2022-07-23T02:44:10;5.22;;;4.72;;
58101;SDS011;52034;51.926;6.320;2022-07-23T02:45:29;5.47;;;4.85;;
58101;SDS011;52034;51.926;6.320;2022-07-23T02:46:48;5.32;;;4.80;;
58101;SDS011;52034;51.926;6.320;2022-07-23T02:48:08;4.68;;;4.10;;
58101;SDS011;52034;51.926;6.320;2022-07-23T02:49:27;7.72;;;4.80;;
58101;SDS011;52034;51.926;6.320;2022-07-23T02:50:46;6.22;;;4.82;;
58101;SDS011;52034;51.926;6.320;2022-07-23T02:52:08;5.75;;;4.72;;
58101;SDS011;52034;51.926;6.320;2022-07-23T02:53:29;6.05;;;4.28;;
58101;SDS011;52034;51.926;6.320;2022-07-23T02:54:48;5.03;;;4.15;;
58101;SDS011;52034;51.926;6.320;2022-07-23T02:56:09;7.10;;;4.68;;
58101;SDS011;52034;51.926;6.320;2022-07-23T02:57:28;5.97;;;5.07;;
58101;SDS011;52034;51.926;6.320;2022-07-23T02:58:49;5.32;;;4.20;;
58101;SDS011;52034;51.926;6.320;2022-07-23T03:00:08;5.72;;;4.43;;
58101;SDS011;52034;51.926;6.320;2022-07-23T03:01:28;6.75;;;4.60;;
58101;SDS011;52034;51.926;6.320;2022-07-23T03:02:47;6.22;;;4.90;;
58101;SDS011;52034;51.926;6.320;2022-07-23T03:04:06;5.55;;;4.68;;
58101;SDS011;52034;51.926;6.320;2022-07-23T03:05:25;5.32;;;4.15;;
58101;SDS011;52034;51.926;6.320;2022-07-23T03:06:45;4.75;;;4.35;;
58101;SDS011;52034;51.926;6.320;2022-07-23T03:08:04;4.90;;;4.35;;
58101;SDS011;52034;51.926;6.320;2022-07-23T03:09:26;5.25;;;4.65;;
58101;SDS011;52034;51.926;6.320;2022-07-23T03:10:45;6.30;;;5.28;;
58101;SDS011;52034;51.926;6.320;2022-07-23T03:12:05;4.95;;;4.50;;
58101;SDS011;52034;51.926;6.320;2022-07-23T03:13:26;7.30;;;4.63;;
58101;SDS011;52034;51.926;6.320;2022-07-23T03:14:46;7.00;;;4.70;;
58101;SDS011;52034;51.926;6.320;2022-07-23T03:16:05;7.03;;;5.10;;
58101;SDS011;52034;51.926;6.320;2022-07-23T03:17:25;5.75;;;4.70;;
58101;SDS011;52034;51.926;6.320;2022-07-23T03:18:44;6.22;;;4.60;;
58101;SDS011;52034;51.926;6.320;2022-07-23T03:20:04;6.88;;;4.70;;
58101;SDS011;52034;51.926;6.320;2022-07-23T03:21:23;5.28;;;4.78;;
58101;SDS011;52034;51.926;6.320;2022-07-23T03:22:42;5.57;;;4.50;;
58101;SDS011;52034;51.926;6.320;2022-07-23T03:24:01;6.18;;;5.25;;
58101;SDS011;52034;51.926;6.320;2022-07-23T03:25:21;5.10;;;4.45;;
58101;SDS011;52034;51.926;6.320;2022-07-23T03:26:40;5.50;;;5.00;;
58101;SDS011;52034;51.926;6.320;2022-07-23T03:27:59;5.20;;;4.68;;
58101;SDS011;52034;51.926;6.320;2022-07-23T03:29:21;8.85;;;5.07;;
58101;SDS011;52034;51.926;6.320;2022-07-23T03:30:39;5.05;;;4.55;;
58101;SDS011;52034;51.926;6.320;2022-07-23T03:31:59;7.32;;;5.00;;
58101;SDS011;52034;51.926;6.320;2022-07-23T03:33:18;7.63;;;5.10;;
58101;SDS011;52034;51.926;6.320;2022-07-23T03:34:38;5.82;;;5.22;;
58101;SDS011;52034;51.926;6.320;2022-07-23T03:35:58;6.65;;;4.78;;
58101;SDS011;52034;51.926;6.320;2022-07-23T03:37:20;5.80;;;5.20;;
58101;SDS011;52034;51.926;6.320;2022-07-23T03:38:39;4.93;;;4.53;;
58101;SDS011;52034;51.926;6.320;2022-07-23T03:39:58;5.88;;;4.75;;
58101;SDS011;52034;51.926;6.320;2022-07-23T03:41:17;5.57;;;4.80;;
58101;SDS011;52034;51.926;6.320;2022-07-23T03:42:37;5.43;;;4.57;;
58101;SDS011;52034;51.926;6.320;2022-07-23T03:43:58;9.35;;;4.78;;
58101;SDS011;52034;51.926;6.320;2022-07-23T03:45:18;5.13;;;4.63;;
58101;SDS011;52034;51.926;6.320;2022-07-23T03:46:37;5.38;;;4.70;;
58101;SDS011;52034;51.926;6.320;2022-07-23T03:47:56;6.53;;;5.10;;
58101;SDS011;52034;51.926;6.320;2022-07-23T03:49:15;9.43;;;5.10;;
58101;SDS011;52034;51.926;6.320;2022-07-23T03:50:35;4.93;;;4.32;;
58101;SDS011;52034;51.926;6.320;2022-07-23T03:51:54;6.53;;;4.40;;
58101;SDS011;52034;51.926;6.320;2022-07-23T03:53:13;5.25;;;4.53;;
58101;SDS011;52034;51.926;6.320;2022-07-23T03:54:32;5.88;;;4.53;;
58101;SDS011;52034;51.926;6.320;2022-07-23T03:55:51;5.13;;;4.13;;
58101;SDS011;52034;51.926;6.320;2022-07-23T03:57:10;6.28;;;4.60;;
58101;SDS011;52034;51.926;6.320;2022-07-23T03:58:29;5.15;;;3.90;;
58101;SDS011;52034;51.926;6.320;2022-07-23T03:59:48;4.32;;;3.90;;
58101;SDS011;52034;51.926;6.320;2022-07-23T04:01:07;4.03;;;3.72;;
58101;SDS011;52034;51.926;6.320;2022-07-23T04:02:27;4.45;;;4.10;;
58101;SDS011;52034;51.926;6.320;2022-07-23T04:03:46;6.10;;;4.40;;
58101;SDS011;52034;51.926;6.320;2022-07-23T04:05:05;4.55;;;4.15;;
58101;SDS011;52034;51.926;6.320;2022-07-23T04:06:25;5.97;;;5.15;;
58101;SDS011;52034;51.926;6.320;2022-07-23T04:07:46;6.47;;;4.53;;
58101;SDS011;52034;51.926;6.320;2022-07-23T04:09:04;6.18;;;4.82;;
58101;SDS011;52034;51.926;6.320;2022-07-23T04:10:25;7.05;;;5.07;;
58101;SDS011;52034;51.926;6.320;2022-07-23T04:11:44;8.43;;;5.20;;
58101;SDS011;52034;51.926;6.320;2022-07-23T04:13:03;5.38;;;4.75;;
58101;SDS011;52034;51.926;6.320;2022-07-23T04:14:22;5.97;;;4.97;;
58101;SDS011;52034;51.926;6.320;2022-07-23T04:15:41;5.32;;;4.72;;
58101;SDS011;52034;51.926;6.320;2022-07-23T04:17:00;6.90;;;5.80;;
58101;SDS011;52034;51.926;6.320;2022-07-23T04:18:20;6.32;;;5.00;;
58101;SDS011;52034;51.926;6.320;2022-07-23T04:19:49;5.47;;;4.50;;
58101;SDS011;52034;51.926;6.320;2022-07-23T04:21:11;5.75;;;4.60;;
58101;SDS011;52034;51.926;6.320;2022-07-23T04:22:30;6.05;;;4.65;;
58101;SDS011;52034;51.926;6.320;2022-07-23T04:23:49;8.32;;;5.35;;
58101;SDS011;52034;51.926;6.320;2022-07-23T04:25:09;5.90;;;5.20;;
58101;SDS011;52034;51.926;6.320;2022-07-23T04:26:29;10.75;;;5.10;;
58101;SDS011;52034;51.926;6.320;2022-07-23T04:27:48;5.65;;;5.05;;
58101;SDS011;52034;51.926;6.320;2022-07-23T04:29:07;6.80;;;4.97;;
58101;SDS011;52034;51.926;6.320;2022-07-23T04:30:26;5.25;;;4.75;;
58101;SDS011;52034;51.926;6.320;2022-07-23T04:31:46;6.13;;;4.78;;
58101;SDS011;52034;51.926;6.320;2022-07-23T04:33:05;5.57;;;5.07;;
58101;SDS011;52034;51.926;6.320;2022-07-23T04:34:26;5.20;;;4.80;;
58101;SDS011;52034;51.926;6.320;2022-07-23T04:35:45;5.75;;;5.05;;
58101;SDS011;52034;51.926;6.320;2022-07-23T04:37:12;5.07;;;4.57;;
58101;SDS011;52034;51.926;6.320;2022-07-23T04:38:31;6.00;;;4.93;;
58101;SDS011;52034;51.926;6.320;2022-07-23T04:39:53;5.95;;;5.43;;
58101;SDS011;52034;51.926;6.320;2022-07-23T04:41:13;7.68;;;5.40;;
58101;SDS011;52034;51.926;6.320;2022-07-23T04:42:32;7.47;;;5.45;;
58101;SDS011;52034;51.926;6.320;2022-07-23T04:43:51;7.63;;;5.20;;
58101;SDS011;52034;51.926;6.320;2022-07-23T04:45:11;6.25;;;5.18;;
58101;SDS011;52034;51.926;6.320;2022-07-23T04:46:30;6.97;;;4.90;;
58101;SDS011;52034;51.926;6.320;2022-07-23T04:47:49;8.18;;;5.53;;
58101;SDS011;52034;51.926;6.320;2022-07-23T04:49:09;7.72;;;5.38;;
58101;SDS011;52034;51.926;6.320;2022-07-23T04:50:28;7.82;;;5.50;;
58101;SDS011;52034;51.926;6.320;2022-07-23T04:51:50;8.25;;;5.65;;
58101;SDS011;52034;51.926;6.320;2022-07-23T04:53:09;6.40;;;5.25;;
58101;SDS011;52034;51.926;6.320;2022-07-23T04:54:28;6.70;;;5.28;;
58101;SDS011;52034;51.926;6.320;2022-07-23T04:55:47;8.45;;;5.60;;
58101;SDS011;52034;51.926;6.320;2022-07-23T04:57:06;7.85;;;5.45;;
58101;SDS011;52034;51.926;6.320;2022-07-23T04:58:25;6.40;;;5.30;;
58101;SDS011;52034;51.926;6.320;2022-07-23T04:59:44;5.25;;;4.75;;
58101;SDS011;52034;51.926;6.320;2022-07-23T05:01:04;5.43;;;4.90;;
58101;SDS011;52034;51.926;6.320;2022-07-23T05:02:26;5.80;;;5.30;;
58101;SDS011;52034;51.926;6.320;2022-07-23T05:03:48;6.38;;;5.18;;
58101;SDS011;52034;51.926;6.320;2022-07-23T05:05:07;9.20;;;5.00;;
58101;SDS011;52034;51.926;6.320;2022-07-23T05:06:27;6.38;;;5.38;;
58101;SDS011;52034;51.926;6.320;2022-07-23T05:07:46;5.45;;;4.75;;
58101;SDS011;52034;51.926;6.320;2022-07-23T05:09:05;6.25;;;4.57;;
58101;SDS011;52034;51.926;6.320;2022-07-23T05:10:25;6.13;;;5.35;;
58101;SDS011;52034;51.926;6.320;2022-07-23T05:11:44;7.18;;;5.72;;
58101;SDS011;52034;51.926;6.320;2022-07-23T05:13:03;7.20;;;5.18;;
58101;SDS011;52034;51.926;6.320;2022-07-23T05:14:23;5.47;;;4.97;;
58101;SDS011;52034;51.926;6.320;2022-07-23T05:15:43;10.05;;;5.50;;
58101;SDS011;52034;51.926;6.320;2022-07-23T05:17:02;6.93;;;5.50;;
58101;SDS011;52034;51.926;6.320;2022-07-23T05:18:22;6.25;;;5.38;;
58101;SDS011;52034;51.926;6.320;2022-07-23T05:19:41;6.75;;;5.53;;
58101;SDS011;52034;51.926;6.320;2022-07-23T05:21:00;6.70;;;5.78;;
58101;SDS011;52034;51.926;6.320;2022-07-23T05:22:20;9.45;;;6.13;;
58101;SDS011;52034;51.926;6.320;2022-07-23T05:23:39;8.18;;;5.78;;
58101;SDS011;52034;51.926;6.320;2022-07-23T05:24:59;7.78;;;5.90;;
58101;SDS011;52034;51.926;6.320;2022-07-23T05:26:18;6.30;;;5.68;;
58101;SDS011;52034;51.926;6.320;2022-07-23T05:27:37;7.25;;;6.28;;
58101;SDS011;52034;51.926;6.320;2022-07-23T05:28:56;6.85;;;6.13;;
58101;SDS011;52034;51.926;6.320;2022-07-23T05:30:15;7.15;;;5.82;;
58101;SDS011;52034;51.926;6.320;2022-07-23T05:31:37;9.98;;;6.20;;
58101;SDS011;52034;51.926;6.320;2022-07-23T05:32:56;6.50;;;5.80;;
58101;SDS011;52034;51.926;6.320;2022-07-23T05:34:15;7.18;;;6.13;;
58101;SDS011;52034;51.926;6.320;2022-07-23T05:35:34;9.38;;;6.40;;
58101;SDS011;52034;51.926;6.320;2022-07-23T05:37:09;7.93;;;6.05;;
58101;SDS011;52034;51.926;6.320;2022-07-23T05:38:28;9.50;;;6.20;;
58101;SDS011;52034;51.926;6.320;2022-07-23T05:39:50;9.07;;;5.90;;
58101;SDS011;52034;51.926;6.320;2022-07-23T05:41:10;7.28;;;6.28;;
58101;SDS011;52034;51.926;6.320;2022-07-23T05:42:30;6.88;;;6.15;;
58101;SDS011;52034;51.926;6.320;2022-07-23T05:43:49;6.65;;;5.97;;
58101;SDS011;52034;51.926;6.320;2022-07-23T05:45:09;8.55;;;6.15;;
58101;SDS011;52034;51.926;6.320;2022-07-23T05:46:32;8.05;;;6.15;;
58101;SDS011;52034;51.926;6.320;2022-07-23T05:47:57;7.20;;;6.43;;
58101;SDS011;52034;51.926;6.320;2022-07-23T05:49:24;7.65;;;6.32;;
58101;SDS011;52034;51.926;6.320;2022-07-23T05:50:47;9.93;;;6.93;;
58101;SDS011;52034;51.926;6.320;2022-07-23T05:52:18;9.60;;;6.35;;
58101;SDS011;52034;51.926;6.320;2022-07-23T05:54:05;8.88;;;6.82;;
58101;SDS011;52034;51.926;6.320;2022-07-23T05:55:28;8.32;;;6.22;;
58101;SDS011;52034;51.926;6.320;2022-07-23T05:56:50;9.00;;;6.50;;
58101;SDS011;52034;51.926;6.320;2022-07-23T05:58:09;6.75;;;6.00;;
58101;SDS011;52034;51.926;6.320;2022-07-23T05:59:28;8.20;;;6.38;;
58101;SDS011;52034;51.926;6.320;2022-07-23T06:00:48;8.90;;;6.28;;
58101;SDS011;52034;51.926;6.320;2022-07-23T06:02:07;8.75;;;6.60;;
58101;SDS011;52034;51.926;6.320;2022-07-23T06:03:27;10.93;;;6.55;;
58101;SDS011;52034;51.926;6.320;2022-07-23T06:04:46;8.15;;;6.60;;
58101;SDS011;52034;51.926;6.320;2022-07-23T06:06:14;7.30;;;6.60;;
58101;SDS011;52034;51.926;6.320;2022-07-23T06:07:33;7.82;;;5.95;;
58101;SDS011;52034;51.926;6.320;2022-07-23T06:08:53;7.90;;;6.57;;
58101;SDS011;52034;51.926;6.320;2022-07-23T06:10:12;7.82;;;6.90;;
58101;SDS011;52034;51.926;6.320;2022-07-23T06:11:31;10.15;;;6.53;;
58101;SDS011;52034;51.926;6.320;2022-07-23T06:12:50;8.45;;;6.50;;
58101;SDS011;52034;51.926;6.320;2022-07-23T06:14:10;11.95;;;6.90;;
58101;SDS011;52034;51.926;6.320;2022-07-23T06:15:40;9.20;;;6.78;;
58101;SDS011;52034;51.926;6.320;2022-07-23T06:16:59;7.13;;;5.95;;
58101;SDS011;52034;51.926;6.320;2022-07-23T06:18:19;8.23;;;6.40;;
58101;SDS011;52034;51.926;6.320;2022-07-23T06:19:38;7.35;;;6.05;;
58101;SDS011;52034;51.926;6.320;2022-07-23T06:20:57;8.27;;;6.63;;
58101;SDS011;52034;51.926;6.320;2022-07-23T06:22:16;9.50;;;5.88;;
58101;SDS011;52034;51.926;6.320;2022-07-23T06:23:35;8.85;;;6.00;;
58101;SDS011;52034;51.926;6.320;2022-07-23T06:24:55;7.93;;;6.32;;
58101;SDS011;52034;51.926;6.320;2022-07-23T06:26:14;6.60;;;5.90;;
58101;SDS011;52034;51.926;6.320;2022-07-23T06:27:33;8.82;;;6.07;;
58101;SDS011;52034;51.926;6.320;2022-07-23T06:28:52;6.43;;;5.82;;
58101;SDS011;52034;51.926;6.320;2022-07-23T06:30:12;7.25;;;6.05;;
58101;SDS011;52034;51.926;6.320;2022-07-23T06:31:32;8.25;;;5.82;;
58101;SDS011;52034;51.926;6.320;2022-07-23T06:32:51;7.10;;;5.30;;
58101;SDS011;52034;51.926;6.320;2022-07-23T06:34:10;8.00;;;5.43;;
58101;SDS011;52034;51.926;6.320;2022-07-23T06:35:29;7.07;;;5.53;;
58101;SDS011;52034;51.926;6.320;2022-07-23T06:36:48;8.32;;;5.70;;
58101;SDS011;52034;51.926;6.320;2022-07-23T06:38:07;6.35;;;5.07;;
58101;SDS011;52034;51.926;6.320;2022-07-23T06:39:26;10.93;;;5.95;;
58101;SDS011;52034;51.926;6.320;2022-07-23T06:40:45;7.30;;;5.40;;
58101;SDS011;52034;51.926;6.320;2022-07-23T06:42:04;7.00;;;5.25;;
58101;SDS011;52034;51.926;6.320;2022-07-23T06:43:35;6.10;;;5.03;;
58101;SDS011;52034;51.926;6.320;2022-07-23T06:44:54;8.30;;;4.88;;
58101;SDS011;52034;51.926;6.320;2022-07-23T06:46:14;6.60;;;5.40;;
58101;SDS011;52034;51.926;6.320;2022-07-23T06:47:33;7.03;;;4.63;;
58101;SDS011;52034;51.926;6.320;2022-07-23T06:48:53;7.43;;;5.05;;
58101;SDS011;52034;51.926;6.320;2022-07-23T06:50:12;7.05;;;4.65;;
58101;SDS011;52034;51.926;6.320;2022-07-23T06:51:31;6.95;;;4.60;;
58101;SDS011;52034;51.926;6.320;2022-07-23T06:52:51;9.23;;;4.80;;
58101;SDS011;52034;51.926;6.320;2022-07-23T06:54:10;5.55;;;4.30;;
58101;SDS011;52034;51.926;6.320;2022-07-23T06:55:29;5.40;;;4.47;;
58101;SDS011;52034;51.926;6.320;2022-07-23T06:56:48;6.07;;;4.50;;
58101;SDS011;52034;51.926;6.320;2022-07-23T06:58:08;6.57;;;4.38;;
58101;SDS011;52034;51.926;6.320;2022-07-23T06:59:28;6.57;;;4.50;;
58101;SDS011;52034;51.926;6.320;2022-07-23T07:00:47;6.85;;;4.57;;
58101;SDS011;52034;51.926;6.320;2022-07-23T07:02:07;7.15;;;4.50;;
58101;SDS011;52034;51.926;6.320;2022-07-23T07:03:26;8.63;;;4.70;;
58101;SDS011;52034;51.926;6.320;2022-07-23T07:04:45;8.00;;;4.60;;
58101;SDS011;52034;51.926;6.320;2022-07-23T07:06:04;7.63;;;4.30;;
58101;SDS011;52034;51.926;6.320;2022-07-23T07:07:23;5.63;;;4.35;;
58101;SDS011;52034;51.926;6.320;2022-07-23T07:08:42;5.40;;;3.28;;
58101;SDS011;52034;51.926;6.320;2022-07-23T07:10:02;5.82;;;4.20;;
58101;SDS011;52034;51.926;6.320;2022-07-23T07:11:22;8.88;;;4.38;;
58101;SDS011;52034;51.926;6.320;2022-07-23T07:12:42;5.45;;;4.28;;
58101;SDS011;52034;51.926;6.320;2022-07-23T07:14:01;6.32;;;3.92;;
58101;SDS011;52034;51.926;6.320;2022-07-23T07:15:20;6.68;;;4.72;;
58101;SDS011;52034;51.926;6.320;2022-07-23T07:16:39;8.27;;;4.20;;
58101;SDS011;52034;51.926;6.320;2022-07-23T07:17:58;6.57;;;4.07;;
58101;SDS011;52034;51.926;6.320;2022-07-23T07:19:18;5.68;;;3.97;;
58101;SDS011;52034;51.926;6.320;2022-07-23T07:20:37;6.53;;;3.95;;
58101;SDS011;52034;51.926;6.320;2022-07-23T07:21:56;4.65;;;3.40;;
58101;SDS011;52034;51.926;6.320;2022-07-23T07:23:16;4.97;;;3.70;;
58101;SDS011;52034;51.926;6.320;2022-07-23T07:24:35;6.88;;;3.33;;
58101;SDS011;52034;51.926;6.320;2022-07-23T07:25:54;4.90;;;3.40;;
58101;SDS011;52034;51.926;6.320;2022-07-23T07:27:13;7.22;;;3.42;;
58101;SDS011;52034;51.926;6.320;2022-07-23T07:28:32;5.00;;;3.65;;
58101;SDS011;52034;51.926;6.320;2022-07-23T07:29:51;5.35;;;3.60;;
58101;SDS011;52034;51.926;6.320;2022-07-23T07:31:10;6.78;;;3.45;;
58101;SDS011;52034;51.926;6.320;2022-07-23T07:32:30;5.15;;;3.42;;
58101;SDS011;52034;51.926;6.320;2022-07-23T07:33:51;7.60;;;3.65;;
58101;SDS011;52034;51.926;6.320;2022-07-23T07:35:10;4.07;;;3.47;;
58101;SDS011;52034;51.926;6.320;2022-07-23T07:36:29;5.20;;;2.95;;
58101;SDS011;52034;51.926;6.320;2022-07-23T07:37:48;3.53;;;3.22;;
58101;SDS011;52034;51.926;6.320;2022-07-23T07:39:07;6.93;;;3.30;;
58101;SDS011;52034;51.926;6.320;2022-07-23T07:40:29;6.05;;;3.20;;
58101;SDS011;52034;51.926;6.320;2022-07-23T07:41:48;5.18;;;3.50;;
58101;SDS011;52034;51.926;6.320;2022-07-23T07:43:07;4.60;;;2.70;;
58101;SDS011;52034;51.926;6.320;2022-07-23T07:44:26;4.55;;;2.80;;
58101;SDS011;52034;51.926;6.320;2022-07-23T07:45:45;4.38;;;2.47;;
58101;SDS011;52034;51.926;6.320;2022-07-23T07:47:04;6.10;;;2.75;;
58101;SDS011;52034;51.926;6.320;2022-07-23T07:48:23;6.90;;;3.50;;
58101;SDS011;52034;51.926;6.320;2022-07-23T07:49:42;5.53;;;3.35;;
58101;SDS011;52034;51.926;6.320;2022-07-23T07:51:02;4.25;;;3.17;;
58101;SDS011;52034;51.926;6.320;2022-07-23T07:52:22;5.30;;;2.75;;
58101;SDS011;52034;51.926;6.320;2022-07-23T07:53:41;5.93;;;3.47;;
58101;SDS011;52034;51.926;6.320;2022-07-23T07:55:00;4.63;;;3.03;;
58101;SDS011;52034;51.926;6.320;2022-07-23T07:56:19;6.68;;;3.33;;
58101;SDS011;52034;51.926;6.320;2022-07-23T07:57:39;6.07;;;3.35;;
58101;SDS011;52034;51.926;6.320;2022-07-23T07:58:58;5.00;;;3.00;;
58101;SDS011;52034;51.926;6.320;2022-07-23T08:00:17;5.35;;;3.13;;
58101;SDS011;52034;51.926;6.320;2022-07-23T08:01:36;3.55;;;2.70;;
58101;SDS011;52034;51.926;6.320;2022-07-23T08:02:55;6.43;;;3.05;;